Strona główna
METAR-TAF:

METAR-TAF

Lotnisko :

Port lotniczy Londyn-Southend

Londyn-Southend, Anglia

Szerokość geograficzna: 51-34N, Długość geograficzna: 000-42E, wysokość: 15 m

Aktualna obserwacja pogody

Raport powstał 31 minut temu, godzina 12:50 UTC
Wiatr 5 kt od zachodnio-północny zachód, zmienny między zachodnio-południowy zachód i północ
Temperatura 11°C
Wilgotność 47%
Ciśnienie 1037 hPa
Widzialność 10 km lub więcej
Mało chmury na wysokości 3200 ft

METAR: EGMC 261250Z 29005KT 240V350 9999 FEW032 11/00 Q1037

czas: 13:21 (13:21 UTC)

Prognoza

Raport powstał 2 godziny i 27 minut temu, godzina 10:54 UTC
Prognoza ważna od 26 godzina 12 UTC do 26 godzina 21 UTC
Wiatr 6 kt od północny zachód
Widzialność 10 km lub więcej
Brak chmur poniżej 1500 m i brak chmur cumulonimbus

TAF: EGMC 261054Z 2612/2621 31006KT CAVOK

Obserwacja i prognoza pogody dla ponad 4000 lotnisk (raport METAR i TAF).

Dostępne stacje oznaczono żółtymi i czerwonymi punktami na mapie.

Najedź kursorem aby zobaczyć nazwę stacji.

Kliknij aby zobaczyć obserwacje i prognozy pogody.

Aby zmienić mapę: kliknij na zielony przycisk z czarnym krzyżykiem, aby powiększyć; na zielony przycisk z myślnikiem, aby pomniejszyć; na zielone strzałki, aby przejść do map sąsiednich.


METAR-TAF: